createdAt,value
2022-10-24T00:01:24.041Z,83.02
2022-10-24T00:11:29.263Z,82.62
2022-10-24T00:21:31.917Z,82.10
2022-10-24T00:31:35.992Z,82.19
2022-10-24T00:41:42.711Z,82.66
2022-10-24T00:51:48.953Z,82.59
2022-10-24T01:01:51.708Z,82.70
2022-10-24T01:12:05.652Z,83.01
2022-10-24T01:22:14.234Z,83.28
2022-10-24T01:32:28.683Z,83.85
2022-10-24T01:42:33.856Z,84.53
2022-10-24T01:52:42.657Z,84.86
2022-10-24T02:02:50.891Z,84.95
2022-10-24T02:13:00.472Z,85.41
2022-10-24T02:23:10.454Z,85.37
2022-10-24T02:33:16.979Z,85.56
2022-10-24T02:43:21.949Z,85.43
2022-10-24T02:53:27.033Z,84.89
2022-10-24T03:03:29.690Z,85.12
2022-10-24T03:13:33.774Z,84.81
2022-10-24T03:23:36.525Z,85.57
2022-10-24T03:33:40.604Z,85.35
2022-10-24T03:43:43.419Z,84.63
2022-10-24T03:53:47.495Z,84.82
2022-10-24T04:03:50.210Z,85.57
2022-10-24T04:13:54.372Z,85.42
2022-10-24T04:23:57.026Z,83.23
2022-10-24T04:34:01.023Z,82.10
2022-10-24T04:44:03.669Z,80.07
2022-10-24T04:54:08.604Z,78.47
2022-10-24T05:04:12.536Z,78.29
2022-10-24T05:14:16.463Z,78.41
2022-10-24T05:24:19.163Z,77.95
2022-10-24T05:34:23.287Z,77.91
2022-10-24T05:44:26.116Z,77.30
2022-10-24T05:54:37.724Z,77.52
2022-10-24T06:04:51.864Z,78.32
2022-10-24T06:14:59.030Z,78.30
2022-10-24T06:25:01.759Z,78.72
2022-10-24T06:35:06.576Z,78.80
2022-10-24T06:45:10.069Z,78.43
2022-10-24T06:55:14.053Z,78.24
2022-10-24T07:05:17.099Z,77.21
2022-10-24T07:15:21.506Z,77.08
2022-10-24T07:25:24.164Z,75.80
2022-10-24T07:35:28.134Z,75.21
2022-10-24T07:45:32.215Z,73.71
2022-10-24T07:55:39.140Z,72.98
2022-10-24T08:05:41.975Z,72.32
2022-10-24T08:15:46.149Z,72.37
2022-10-24T08:25:48.738Z,71.99
2022-10-24T08:35:53.811Z,70.66
2022-10-24T08:46:03.720Z,69.84
2022-10-24T08:56:11.448Z,68.13
2022-10-24T09:06:18.856Z,66.06
2022-10-24T09:16:25.043Z,66.80
2022-10-24T09:26:30.858Z,65.73
2022-10-24T09:36:35.078Z,64.19
2022-10-24T09:46:44.941Z,64.79
2022-10-24T09:56:54.991Z,64.24
2022-10-24T10:06:57.759Z,63.77
2022-10-24T10:17:05.017Z,62.84
2022-10-24T10:27:27.392Z,62.31
2022-10-24T10:37:33.314Z,64.36
2022-10-24T10:47:47.099Z,62.44
2022-10-24T10:57:59.092Z,62.07
2022-10-24T11:08:08.537Z,64.82
2022-10-24T11:18:18.898Z,65.75
2022-10-24T11:28:27.001Z,39.12
2022-10-24T11:38:33.564Z,32.95
2022-10-24T11:48:41.548Z,29.98
2022-10-24T11:58:51.475Z,31.03
2022-10-24T12:09:09.594Z,33.66
2022-10-24T12:19:17.245Z,44.10
2022-10-24T12:29:24.971Z,53.27
2022-10-24T12:39:34.123Z,55.55
2022-10-24T12:49:36.776Z,60.05
2022-10-24T12:59:49.022Z,61.89
2022-10-24T13:10:02.762Z,59.96
2022-10-24T13:20:17.586Z,59.21
2022-10-24T13:30:26.951Z,60.99
2022-10-24T13:40:33.174Z,62.98
2022-10-24T13:50:39.768Z,63.47
2022-10-24T14:00:46.907Z,63.44
2022-10-24T14:10:50.921Z,63.62
2022-10-24T14:20:57.128Z,64.31
2022-10-24T14:31:02.252Z,64.91
2022-10-24T14:41:10.121Z,68.68
2022-10-24T14:51:18.898Z,72.37
2022-10-24T15:01:24.661Z,72.82
2022-10-24T15:11:30.640Z,75.25
2022-10-24T15:21:39.398Z,74.07
2022-10-24T15:31:43.875Z,74.46
2022-10-24T15:41:48.283Z,76.38
2022-10-24T15:51:51.992Z,76.37
2022-10-24T16:02:00.170Z,77.02
2022-10-24T16:12:02.935Z,78.40
2022-10-24T16:22:08.513Z,78.70
2022-10-24T16:32:12.052Z,79.29
2022-10-24T16:42:16.802Z,79.60
2022-10-24T16:52:19.464Z,79.70
2022-10-24T17:02:23.408Z,80.56
2022-10-24T17:12:27.412Z,81.17
2022-10-24T17:22:43.148Z,82.02
2022-10-24T17:32:49.851Z,82.60
2022-10-24T17:42:54.624Z,83.28
2022-10-24T17:52:57.204Z,84.62
2022-10-24T18:03:01.166Z,83.76
2022-10-24T18:13:03.861Z,84.06
2022-10-24T18:23:07.886Z,84.27
2022-10-24T18:33:10.555Z,84.58
2022-10-24T18:43:14.803Z,84.87
2022-10-24T18:53:23.877Z,84.82
2022-10-24T19:03:33.603Z,84.74
2022-10-24T19:13:36.354Z,84.87
2022-10-24T19:23:40.336Z,85.32
2022-10-24T19:33:49.836Z,85.68
2022-10-24T19:43:53.856Z,86.16
2022-10-24T19:53:56.999Z,85.87
2022-10-24T20:04:01.315Z,85.35
2022-10-24T20:14:03.939Z,85.74
2022-10-24T20:24:09.543Z,85.52
2022-10-24T20:34:12.350Z,85.80
2022-10-24T20:44:16.755Z,86.26
2022-10-24T20:54:19.703Z,85.84
2022-10-24T21:04:23.711Z,85.80
2022-10-24T21:14:26.368Z,85.93
2022-10-24T21:24:30.373Z,86.18
2022-10-24T21:34:34.603Z,86.30
2022-10-24T21:44:39.246Z,86.27
2022-10-24T21:54:41.903Z,86.77
2022-10-24T22:04:45.897Z,86.75
2022-10-24T22:14:48.528Z,86.83
2022-10-24T22:24:52.599Z,87.70
2022-10-24T22:34:55.804Z,88.57
2022-10-24T22:45:00.320Z,88.64
2022-10-24T22:55:04.038Z,88.45
2022-10-24T23:05:14.816Z,88.20
2022-10-24T23:15:20.171Z,88.15
2022-10-24T23:25:25.142Z,88.38
2022-10-24T23:35:28.416Z,88.69
2022-10-24T23:45:36.820Z,89.18
2022-10-24T23:55:39.916Z,89.92
